createdAt,value
2023-09-08T00:01:47.492Z,100900.14
2023-09-08T00:04:14.139Z,100898.04
2023-09-08T00:06:40.803Z,100899.83
2023-09-08T00:09:08.142Z,100901.73
2023-09-08T00:11:34.827Z,100907.04
2023-09-08T00:14:01.332Z,100907.35
2023-09-08T00:16:27.899Z,100909.27
2023-09-08T00:18:54.470Z,100911.55
2023-09-08T00:21:20.935Z,100909.45
2023-09-08T00:23:47.410Z,100905.25
2023-09-08T00:26:13.936Z,100901.90
2023-09-08T00:28:40.430Z,100906.84
2023-09-08T00:31:06.936Z,100904.50
2023-09-08T00:33:33.545Z,100903.94
2023-09-08T00:36:00.122Z,100904.92
2023-09-08T00:38:26.686Z,100905.61
2023-09-08T00:40:53.322Z,100905.04
2023-09-08T00:43:19.836Z,100899.54
2023-09-08T00:45:47.151Z,100899.34
2023-09-08T00:48:14.052Z,100896.13
2023-09-08T00:50:40.788Z,100892.38
2023-09-08T00:53:08.566Z,100888.58
2023-09-08T00:55:35.907Z,100889.38
2023-09-08T00:58:03.025Z,100888.40
2023-09-08T01:00:29.525Z,100884.95
2023-09-08T01:02:56.268Z,100881.49
2023-09-08T01:05:25.781Z,100883.10
2023-09-08T01:07:54.273Z,100881.16
2023-09-08T01:10:20.835Z,100874.84
2023-09-08T01:12:47.391Z,100875.11
2023-09-08T01:15:14.146Z,100875.73
2023-09-08T01:17:40.681Z,100877.45
2023-09-08T01:20:23.442Z,100875.98
2023-09-08T01:22:58.977Z,100874.34
2023-09-08T01:25:27.041Z,100874.66
2023-09-08T01:27:55.173Z,100873.02
2023-09-08T01:30:27.558Z,100872.27
2023-09-08T01:32:55.590Z,100872.23
2023-09-08T01:35:22.579Z,100870.20
2023-09-08T01:37:50.065Z,100872.38
2023-09-08T01:40:17.089Z,100871.60
2023-09-08T01:42:43.583Z,100875.38
2023-09-08T01:45:10.089Z,100878.29
2023-09-08T01:47:36.729Z,100875.55
2023-09-08T01:50:03.627Z,100872.25
2023-09-08T01:52:30.175Z,100870.20
2023-09-08T01:54:56.691Z,100871.71
2023-09-08T01:57:23.386Z,100872.52
2023-09-08T01:59:49.966Z,100871.17
2023-09-08T02:02:16.447Z,100880.29
2023-09-08T02:04:42.984Z,100874.84
2023-09-08T02:07:09.549Z,100878.23
2023-09-08T02:09:38.072Z,100874.34
2023-09-08T02:12:05.159Z,100874.90
2023-09-08T02:14:31.839Z,100871.92
2023-09-08T02:16:58.528Z,100875.14
2023-09-08T02:19:25.159Z,100871.29
2023-09-08T02:21:51.719Z,100867.76
2023-09-08T02:24:18.326Z,100867.05
2023-09-08T02:26:45.322Z,100866.17
2023-09-08T02:29:11.844Z,100863.52
2023-09-08T02:31:38.337Z,100864.59
2023-09-08T02:34:04.811Z,100862.83
2023-09-08T02:36:31.355Z,100859.98
2023-09-08T02:38:58.571Z,100859.92
2023-09-08T02:41:25.089Z,100861.61
2023-09-08T02:43:51.843Z,100864.17
2023-09-08T02:46:18.334Z,100864.45
2023-09-08T02:48:44.832Z,100864.56
2023-09-08T02:51:11.352Z,100862.03
2023-09-08T02:53:37.813Z,100864.11
2023-09-08T02:56:04.631Z,100865.85
2023-09-08T02:58:31.177Z,100863.37
2023-09-08T03:00:57.739Z,100867.63
2023-09-08T03:03:24.346Z,100867.81
2023-09-08T03:05:55.162Z,100866.61
2023-09-08T03:08:24.012Z,100867.16
2023-09-08T03:10:50.537Z,100871.44
2023-09-08T03:13:17.010Z,100871.12
2023-09-08T03:15:43.462Z,100874.63
2023-09-08T03:18:10.043Z,100875.02
2023-09-08T03:20:36.555Z,100874.87
2023-09-08T03:23:03.063Z,100875.96
2023-09-08T03:25:29.574Z,100876.19
2023-09-08T03:27:56.072Z,100877.08
2023-09-08T03:30:22.659Z,100877.63
2023-09-08T03:32:49.506Z,100880.45
2023-09-08T03:35:16.098Z,100879.90
2023-09-08T03:37:42.576Z,100875.65
2023-09-08T03:40:09.669Z,100875.66
2023-09-08T03:42:36.233Z,100879.41
2023-09-08T03:45:02.797Z,100875.90
2023-09-08T03:47:29.339Z,100879.60
2023-09-08T03:49:55.916Z,100877.84
2023-09-08T03:52:22.545Z,100879.94
2023-09-08T03:54:49.047Z,100877.43
2023-09-08T03:57:15.546Z,100879.04
2023-09-08T03:59:42.053Z,100880.82
2023-09-08T04:02:08.664Z,100882.95
2023-09-08T04:04:35.189Z,100884.74
2023-09-08T04:07:01.714Z,100879.10
2023-09-08T04:09:28.278Z,100877.89
2023-09-08T04:11:55.102Z,100881.66
2023-09-08T04:14:22.362Z,100881.73
2023-09-08T04:16:48.854Z,100882.13
2023-09-08T04:19:15.321Z,100886.56
2023-09-08T04:21:42.369Z,100884.27
2023-09-08T04:24:08.895Z,100885.50
2023-09-08T04:26:35.397Z,100882.46
2023-09-08T04:29:01.847Z,100879.08
2023-09-08T04:31:28.381Z,100883.49
2023-09-08T04:33:55.694Z,100883.83
2023-09-08T04:36:22.449Z,100884.89
2023-09-08T04:38:48.943Z,100882.60
2023-09-08T04:41:15.463Z,100883.50
2023-09-08T04:43:42.025Z,100886.86
2023-09-08T04:46:08.547Z,100887.93
2023-09-08T04:48:35.258Z,100888.80
2023-09-08T04:51:02.220Z,100890.87
2023-09-08T04:53:28.756Z,100888.70
2023-09-08T04:55:55.267Z,100892.36
2023-09-08T04:58:21.777Z,100894.95
2023-09-08T05:00:48.330Z,100891.02
2023-09-08T05:03:14.980Z,100892.77
2023-09-08T05:05:41.554Z,100891.87
2023-09-08T05:08:08.082Z,100891.30
2023-09-08T05:10:34.704Z,100893.03
2023-09-08T05:13:01.201Z,100897.95
2023-09-08T05:15:27.713Z,100898.07
2023-09-08T05:17:54.256Z,100904.06
2023-09-08T05:20:20.925Z,100900.45
2023-09-08T05:22:47.414Z,100903.91
2023-09-08T05:25:13.913Z,100903.45
2023-09-08T05:27:40.545Z,100905.66
2023-09-08T05:30:07.764Z,100908.53
2023-09-08T05:32:34.443Z,100909.67
2023-09-08T05:35:01.021Z,100911.35
2023-09-08T05:37:27.517Z,100910.73
2023-09-08T05:39:54.061Z,100913.11
2023-09-08T05:42:20.553Z,100912.27
2023-09-08T05:44:47.043Z,100911.27
2023-09-08T05:47:13.574Z,100912.36
2023-09-08T05:49:40.206Z,100908.56
2023-09-08T05:52:06.850Z,100910.92
2023-09-08T05:54:33.359Z,100910.41
2023-09-08T05:56:59.887Z,100909.19
2023-09-08T05:59:26.458Z,100908.65
2023-09-08T06:01:53.003Z,100907.75
2023-09-08T06:04:19.646Z,100906.61
2023-09-08T06:06:46.208Z,100911.04
2023-09-08T06:09:12.710Z,100916.13
2023-09-08T06:11:39.234Z,100913.20
2023-09-08T06:14:05.723Z,100911.55
2023-09-08T06:16:32.253Z,100911.68
2023-09-08T06:18:58.780Z,100908.64
2023-09-08T06:21:25.445Z,100911.40
2023-09-08T06:23:51.994Z,100910.43
2023-09-08T06:26:18.473Z,100914.63
2023-09-08T06:28:45.034Z,100914.73
2023-09-08T06:31:11.675Z,100915.72
2023-09-08T06:33:38.329Z,100918.83
2023-09-08T06:36:05.172Z,100918.06
2023-09-08T06:38:31.713Z,100923.66
2023-09-08T06:40:58.313Z,100923.74
2023-09-08T06:43:25.184Z,100920.86
2023-09-08T06:45:51.716Z,100920.81
2023-09-08T06:48:18.258Z,100923.60
2023-09-08T06:50:45.008Z,100920.68
2023-09-08T06:53:11.680Z,100922.80
2023-09-08T06:55:38.154Z,100919.94
2023-09-08T06:58:04.979Z,100920.28
2023-09-08T07:00:31.563Z,100920.38
2023-09-08T07:03:00.254Z,100920.45
2023-09-08T07:05:26.953Z,100922.50
2023-09-08T07:07:53.497Z,100921.86
2023-09-08T07:10:20.950Z,100924.62
2023-09-08T07:12:47.463Z,100921.69
2023-09-08T07:15:13.964Z,100921.08
2023-09-08T07:17:40.501Z,100919.23
2023-09-08T07:20:07.463Z,100916.12
2023-09-08T07:22:34.044Z,100916.03
2023-09-08T07:25:00.597Z,100909.39
2023-09-08T07:27:27.090Z,100903.95
2023-09-08T07:29:53.716Z,100902.73
2023-09-08T07:32:20.226Z,100898.19
2023-09-08T07:34:49.319Z,100893.19
2023-09-08T07:37:15.841Z,100889.36
2023-09-08T07:39:42.311Z,100884.70
2023-09-08T07:42:08.776Z,100881.36
2023-09-08T07:44:35.290Z,100887.05
2023-09-08T07:47:01.836Z,100886.39
2023-09-08T07:49:28.408Z,100882.34
2023-09-08T07:51:54.919Z,100879.69
2023-09-08T07:54:21.419Z,100879.66
2023-09-08T07:56:48.436Z,100882.51
2023-09-08T07:59:15.003Z,100883.87
2023-09-08T08:01:41.675Z,100885.05
2023-09-08T08:04:08.366Z,100885.71
2023-09-08T08:06:35.061Z,100882.84
2023-09-08T08:09:03.058Z,100880.70
2023-09-08T08:11:29.974Z,100879.95
2023-09-08T08:13:56.596Z,100879.35
2023-09-08T08:16:23.395Z,100877.46
2023-09-08T08:18:50.351Z,100874.63
2023-09-08T08:21:16.921Z,100876.68
2023-09-08T08:23:43.596Z,100876.02
2023-09-08T08:26:10.085Z,100874.95
2023-09-08T08:28:36.933Z,100870.52
2023-09-08T08:31:03.726Z,100873.40
2023-09-08T08:33:30.521Z,100871.96
2023-09-08T08:35:57.321Z,100873.30
2023-09-08T08:38:23.851Z,100868.11
2023-09-08T08:40:50.413Z,100867.69
2023-09-08T08:43:17.068Z,100867.76
2023-09-08T08:45:44.316Z,100863.00
2023-09-08T08:48:11.700Z,100863.62
2023-09-08T08:50:39.624Z,100863.46
2023-09-08T08:53:07.483Z,100862.83
2023-09-08T08:55:35.438Z,100863.04
2023-09-08T08:58:07.136Z,100859.50
2023-09-08T09:00:37.066Z,100858.84
2023-09-08T09:03:14.836Z,100855.65
2023-09-08T09:05:44.833Z,100855.42
2023-09-08T09:08:16.223Z,100858.09
2023-09-08T09:10:42.751Z,100857.98
2023-09-08T09:13:09.275Z,100854.46
2023-09-08T09:15:35.881Z,100853.44
2023-09-08T09:18:06.736Z,100851.52
2023-09-08T09:20:33.854Z,100849.44
2023-09-08T09:23:00.774Z,100849.66
2023-09-08T09:25:30.918Z,100850.27
2023-09-08T09:28:02.567Z,100850.38
2023-09-08T09:30:46.570Z,100848.33
2023-09-08T09:33:13.193Z,100847.44
2023-09-08T09:35:55.239Z,100847.84
2023-09-08T09:38:22.912Z,100845.81
2023-09-08T09:40:49.709Z,100844.91
2023-09-08T09:43:17.342Z,100847.00
2023-09-08T09:45:44.417Z,100846.08
2023-09-08T09:48:12.231Z,100850.66
2023-09-08T09:50:41.404Z,100847.65
2023-09-08T09:53:15.526Z,100847.88
2023-09-08T09:55:44.621Z,100843.44
2023-09-08T09:58:12.399Z,100837.98
2023-09-08T10:00:40.026Z,100843.92
2023-09-08T10:03:07.126Z,100842.73
2023-09-08T10:05:34.864Z,100840.73
2023-09-08T10:08:01.806Z,100840.13
2023-09-08T10:10:30.684Z,100835.62
2023-09-08T10:13:02.641Z,100834.92
2023-09-08T10:15:31.640Z,100832.13
2023-09-08T10:17:58.757Z,100830.08
2023-09-08T10:20:26.532Z,100826.19
2023-09-08T10:23:07.633Z,100825.88
2023-09-08T10:25:38.568Z,100826.78
2023-09-08T10:28:06.014Z,100823.43
2023-09-08T10:30:33.319Z,100823.37
2023-09-08T10:33:01.631Z,100820.71
2023-09-08T10:35:29.218Z,100816.04
2023-09-08T10:38:23.795Z,100814.95
2023-09-08T10:40:50.484Z,100814.48
2023-09-08T10:43:17.065Z,100810.73
2023-09-08T10:45:43.730Z,100810.52
2023-09-08T10:48:10.335Z,100815.57
2023-09-08T10:50:41.134Z,100805.85
2023-09-08T10:53:13.466Z,100803.10
2023-09-08T10:56:06.446Z,100799.85
2023-09-08T10:58:38.374Z,100803.66
2023-09-08T11:01:05.913Z,100802.46
2023-09-08T11:03:38.913Z,100797.83
2023-09-08T11:06:10.233Z,100790.92
2023-09-08T11:08:39.762Z,100791.08
2023-09-08T11:11:07.288Z,100790.52
2023-09-08T11:13:33.943Z,100792.52
2023-09-08T11:16:00.504Z,100787.52
2023-09-08T11:18:35.109Z,100788.36
2023-09-08T11:21:03.833Z,100782.84
2023-09-08T11:23:31.066Z,100779.30
2023-09-08T11:25:58.050Z,100781.77
2023-09-08T11:28:25.788Z,100782.27
2023-09-08T11:30:52.468Z,100776.45
2023-09-08T11:33:21.926Z,100767.19
2023-09-08T11:35:49.173Z,100764.30
2023-09-08T11:38:15.729Z,100763.52
2023-09-08T11:40:42.779Z,100760.73
2023-09-08T11:43:09.369Z,100761.19
2023-09-08T11:45:36.971Z,100760.95
2023-09-08T11:48:05.065Z,100763.27
2023-09-08T11:50:32.817Z,100759.86
2023-09-08T11:52:59.346Z,100756.17
2023-09-08T11:55:26.267Z,100753.16
2023-09-08T11:57:56.945Z,100753.98
2023-09-08T12:00:24.751Z,100754.06
2023-09-08T12:02:51.490Z,100752.42
2023-09-08T12:05:28.790Z,100743.11
2023-09-08T12:07:56.717Z,100740.88
2023-09-08T12:10:24.843Z,100735.13
2023-09-08T12:12:56.242Z,100734.52
2023-09-08T12:15:33.624Z,100733.54
2023-09-08T12:18:01.762Z,100730.69
2023-09-08T12:20:28.510Z,100728.54
2023-09-08T12:22:55.091Z,100731.59
2023-09-08T12:25:21.639Z,100723.54
2023-09-08T12:27:51.481Z,100723.70
2023-09-08T12:30:19.647Z,100720.92
2023-09-08T12:32:48.562Z,100719.63
2023-09-08T12:35:23.003Z,100721.27
2023-09-08T12:38:04.347Z,100717.04
2023-09-08T12:40:34.119Z,100718.50
2023-09-08T12:43:04.051Z,100715.30
2023-09-08T12:45:42.491Z,100712.85
2023-09-08T12:48:09.112Z,100710.36
2023-09-08T12:50:35.783Z,100707.91
2023-09-08T12:53:02.349Z,100703.86
2023-09-08T12:55:28.814Z,100699.88
2023-09-08T12:57:55.308Z,100697.61
2023-09-08T13:00:23.509Z,100695.35
2023-09-08T13:02:50.772Z,100693.26
2023-09-08T13:05:17.728Z,100687.47
2023-09-08T13:07:44.371Z,100686.26
2023-09-08T13:10:11.128Z,100687.41
2023-09-08T13:12:37.720Z,100688.44
2023-09-08T13:15:04.646Z,100692.05
2023-09-08T13:17:31.183Z,100690.01
2023-09-08T13:19:57.704Z,100686.23
2023-09-08T13:22:24.187Z,100686.02
2023-09-08T13:24:50.719Z,100682.71
2023-09-08T13:27:17.237Z,100681.15
2023-09-08T13:29:43.714Z,100679.35
2023-09-08T13:32:10.270Z,100679.65
2023-09-08T13:34:36.915Z,100678.56
2023-09-08T13:37:03.500Z,100672.98
2023-09-08T13:39:29.990Z,100668.38
2023-09-08T13:41:57.536Z,100665.17
2023-09-08T13:44:25.588Z,100660.05
2023-09-08T13:46:53.621Z,100662.05
2023-09-08T13:49:20.937Z,100660.05
2023-09-08T13:51:49.538Z,100657.08
2023-09-08T13:54:18.349Z,100654.23
2023-09-08T13:56:45.423Z,100650.11
2023-09-08T13:59:12.857Z,100648.33
2023-09-08T14:01:41.160Z,100649.58
2023-09-08T14:04:10.820Z,100648.51
2023-09-08T14:06:41.119Z,100646.59
2023-09-08T14:14:07.335Z,100640.39
2023-09-08T14:16:33.953Z,100638.47
2023-09-08T14:19:00.942Z,100636.30
2023-09-08T14:21:30.224Z,100637.04
2023-09-08T14:23:57.157Z,100632.52
2023-09-08T14:26:23.789Z,100631.71
2023-09-08T14:28:50.555Z,100632.45
2023-09-08T14:31:17.111Z,100631.10
2023-09-08T14:33:43.787Z,100630.06
2023-09-08T14:36:10.349Z,100629.34
2023-09-08T14:38:36.849Z,100626.77
2023-09-08T14:41:03.774Z,100624.33
2023-09-08T14:43:30.658Z,100621.24
2023-09-08T14:45:57.355Z,100619.15
2023-09-08T14:48:24.607Z,100617.33
2023-09-08T14:50:51.794Z,100615.27
2023-09-08T14:53:19.186Z,100614.98
2023-09-08T14:55:45.918Z,100613.10
2023-09-08T14:58:12.557Z,100616.89
2023-09-08T15:00:40.108Z,100617.04
2023-09-08T15:03:07.623Z,100614.33
2023-09-08T15:05:35.128Z,100610.10
2023-09-08T15:08:02.719Z,100611.98
2023-09-08T15:10:29.327Z,100610.75
2023-09-08T15:12:56.039Z,100610.69
2023-09-08T15:15:22.577Z,100610.53
2023-09-08T15:17:49.159Z,100609.89
2023-09-08T15:20:15.755Z,100610.89
2023-09-08T15:22:42.349Z,100609.70
2023-09-08T15:25:09.352Z,100608.75
2023-09-08T15:27:36.255Z,100609.60
2023-09-08T15:30:02.872Z,100607.95
2023-09-08T15:32:29.409Z,100610.48
2023-09-08T15:34:55.926Z,100608.94
2023-09-08T15:37:22.552Z,100609.70
2023-09-08T15:39:49.052Z,100606.90
2023-09-08T15:42:15.676Z,100605.54
2023-09-08T15:44:42.264Z,100607.39
2023-09-08T15:47:08.764Z,100603.53
2023-09-08T15:49:35.573Z,100605.06
2023-09-08T15:52:15.718Z,100605.39
2023-09-08T15:54:43.183Z,100605.43
2023-09-08T15:57:09.831Z,100605.58
2023-09-08T15:59:36.333Z,100602.52
2023-09-08T16:02:03.051Z,100601.25
2023-09-08T16:04:29.741Z,100599.48
2023-09-08T16:06:56.524Z,100599.20
2023-09-08T16:09:23.068Z,100598.28
2023-09-08T16:11:49.523Z,100593.02
2023-09-08T16:14:16.007Z,100594.27
2023-09-08T16:16:42.592Z,100597.14
2023-09-08T16:19:13.270Z,100596.88
2023-09-08T16:21:39.884Z,100593.86
2023-09-08T16:24:09.116Z,100593.60
2023-09-08T16:26:35.698Z,100596.64
2023-09-08T16:29:02.228Z,100594.19
2023-09-08T16:31:28.816Z,100599.44
2023-09-08T16:33:56.664Z,100602.19
2023-09-08T16:36:23.191Z,100603.67
2023-09-08T16:38:49.691Z,100597.80
2023-09-08T16:41:18.594Z,100599.34
2023-09-08T16:43:45.102Z,100599.81
2023-09-08T16:46:11.672Z,100600.91
2023-09-08T16:48:38.235Z,100597.33
2023-09-08T16:51:04.697Z,100602.65
2023-09-08T16:53:31.187Z,100603.83
2023-09-08T16:55:57.724Z,100604.89
2023-09-08T16:58:25.009Z,100605.86
2023-09-08T17:00:51.552Z,100602.27
2023-09-08T17:03:18.338Z,100602.42
2023-09-08T17:05:45.026Z,100603.11
2023-09-08T17:08:13.130Z,100602.91
2023-09-08T17:10:39.725Z,100604.66
2023-09-08T17:13:06.245Z,100606.35
2023-09-08T17:15:32.800Z,100612.38
2023-09-08T17:17:59.359Z,100613.15
2023-09-08T17:20:25.932Z,100615.73
2023-09-08T17:22:52.533Z,100615.52
2023-09-08T17:25:19.092Z,100620.42
2023-09-08T17:27:45.622Z,100623.95
2023-09-08T17:30:12.546Z,100619.97
2023-09-08T17:32:39.259Z,100625.55
2023-09-08T17:35:07.117Z,100629.60
2023-09-08T17:37:33.659Z,100633.27
2023-09-08T17:40:02.765Z,100635.14
2023-09-08T17:42:29.262Z,100636.78
2023-09-08T17:44:55.756Z,100638.17
2023-09-08T17:47:22.278Z,100638.30
2023-09-08T17:49:48.794Z,100640.19
2023-09-08T17:52:15.323Z,100643.86
2023-09-08T17:54:41.815Z,100647.66
2023-09-08T17:57:11.163Z,100647.52
2023-09-08T17:59:37.776Z,100650.64
2023-09-08T18:02:04.761Z,100654.83
2023-09-08T18:04:36.004Z,100655.23
2023-09-08T18:07:02.612Z,100658.70
2023-09-08T18:09:29.764Z,100658.35
2023-09-08T18:11:56.338Z,100664.48
2023-09-08T18:14:22.823Z,100669.55
2023-09-08T18:16:49.319Z,100672.96
2023-09-08T18:19:15.983Z,100673.48
2023-09-08T18:21:42.582Z,100674.23
2023-09-08T18:24:09.215Z,100674.06
2023-09-08T18:26:35.798Z,100675.62
2023-09-08T18:29:02.272Z,100669.86
2023-09-08T18:31:28.841Z,100673.90
2023-09-08T18:33:55.421Z,100673.33
2023-09-08T18:36:21.948Z,100672.79
2023-09-08T18:38:48.435Z,100673.07
2023-09-08T18:41:14.941Z,100673.75
2023-09-08T18:43:41.510Z,100671.69
2023-09-08T18:46:08.096Z,100666.41
2023-09-08T18:48:34.660Z,100665.63
2023-09-08T18:51:01.388Z,100664.42
2023-09-08T18:53:27.957Z,100660.88
2023-09-08T18:55:54.720Z,100663.02
2023-09-08T18:58:21.572Z,100664.84
2023-09-08T19:00:48.061Z,100664.52
2023-09-08T19:03:17.545Z,100664.77
2023-09-08T19:05:44.204Z,100664.48
2023-09-08T19:08:11.889Z,100666.08
2023-09-08T19:10:38.370Z,100663.52
2023-09-08T19:13:06.103Z,100664.49
2023-09-08T19:15:32.903Z,100666.04
2023-09-08T19:17:59.646Z,100663.81
2023-09-08T19:20:26.299Z,100665.33
2023-09-08T19:22:52.829Z,100664.31
2023-09-08T19:25:19.402Z,100664.03
2023-09-08T19:27:45.953Z,100669.36
2023-09-08T19:30:15.040Z,100666.30
2023-09-08T19:32:41.581Z,100666.34
2023-09-08T19:35:09.153Z,100666.56
2023-09-08T19:37:35.809Z,100665.36
2023-09-08T19:40:02.370Z,100664.64
2023-09-08T19:42:28.865Z,100664.05
2023-09-08T19:44:55.370Z,100663.45
2023-09-08T19:47:22.207Z,100664.41
2023-09-08T19:49:48.759Z,100662.30
2023-09-08T19:52:15.687Z,100664.30
2023-09-08T19:54:42.318Z,100667.20
2023-09-08T19:57:08.840Z,100666.00
2023-09-08T19:59:35.835Z,100665.20
2023-09-08T20:02:05.195Z,100667.95
2023-09-08T20:04:31.850Z,100667.13
2023-09-08T20:06:58.398Z,100668.83
2023-09-08T20:09:25.044Z,100669.98
2023-09-08T20:11:51.543Z,100669.52
2023-09-08T20:14:18.291Z,100668.73
2023-09-08T20:16:44.832Z,100670.21
2023-09-08T20:19:11.449Z,100672.23
2023-09-08T20:21:37.931Z,100671.19
2023-09-08T20:24:04.732Z,100670.49
2023-09-08T20:26:31.414Z,100670.16
2023-09-08T20:28:58.096Z,100665.36
2023-09-08T20:31:24.709Z,100667.86
2023-09-08T20:33:51.293Z,100667.73
2023-09-08T20:36:18.002Z,100668.36
2023-09-08T20:38:44.679Z,100669.63
2023-09-08T20:41:12.195Z,100665.57
2023-09-08T20:43:39.539Z,100664.43
2023-09-08T20:46:06.421Z,100666.30
2023-09-08T20:48:34.997Z,100666.40
2023-09-08T20:51:11.185Z,100670.56
2023-09-08T20:53:40.356Z,100674.02
2023-09-08T20:56:08.449Z,100670.91
2023-09-08T20:58:34.972Z,100667.03
2023-09-08T21:01:01.564Z,100668.71
2023-09-08T21:03:28.776Z,100669.23
2023-09-08T21:05:55.296Z,100667.98
2023-09-08T21:08:22.011Z,100667.79
2023-09-08T21:10:49.082Z,100668.19
2023-09-08T21:13:16.051Z,100667.52
2023-09-08T21:15:43.342Z,100665.42
2023-09-08T21:18:10.007Z,100666.35
2023-09-08T21:20:36.841Z,100666.55
2023-09-08T21:23:03.734Z,100665.93
2023-09-08T21:25:32.135Z,100665.11
2023-09-08T21:27:59.597Z,100664.98
2023-09-08T21:30:26.432Z,100663.03
2023-09-08T21:32:56.112Z,100665.50
2023-09-08T21:35:22.689Z,100670.13
2023-09-08T21:37:49.317Z,100668.51
2023-09-08T21:40:15.860Z,100670.41
2023-09-08T21:42:42.659Z,100672.13
2023-09-08T21:45:09.522Z,100670.83
2023-09-08T21:47:36.104Z,100673.48
2023-09-08T21:50:02.773Z,100666.89
2023-09-08T21:52:38.454Z,100667.35
2023-09-08T21:55:06.742Z,100671.40
2023-09-08T21:57:33.296Z,100670.10
2023-09-08T22:00:01.253Z,100667.77
2023-09-08T22:02:29.072Z,100667.17
2023-09-08T22:04:55.987Z,100662.86
2023-09-08T22:07:22.808Z,100662.09
2023-09-08T22:09:51.871Z,100666.62
2023-09-08T22:12:18.408Z,100668.30
2023-09-08T22:14:44.935Z,100665.59
2023-09-08T22:17:11.441Z,100664.98
2023-09-08T22:19:37.963Z,100664.21
2023-09-08T22:22:04.643Z,100665.20
2023-09-08T22:24:31.157Z,100666.52
2023-09-08T22:26:57.740Z,100665.89
2023-09-08T22:29:24.321Z,100669.50
2023-09-08T22:31:51.020Z,100668.63
2023-09-08T22:34:17.573Z,100664.73
2023-09-08T22:36:44.126Z,100668.05
2023-09-08T22:39:10.629Z,100663.58
2023-09-08T22:41:37.139Z,100665.23
2023-09-08T22:44:03.741Z,100660.85
2023-09-08T22:46:30.444Z,100659.12
2023-09-08T22:48:56.941Z,100657.23
2023-09-08T22:51:23.444Z,100656.40
2023-09-08T22:53:49.915Z,100658.01
2023-09-08T22:56:16.540Z,100659.10
2023-09-08T22:58:43.130Z,100659.20
2023-09-08T23:01:09.822Z,100656.49
2023-09-08T23:03:36.877Z,100656.77
2023-09-08T23:06:03.949Z,100656.21
2023-09-08T23:08:30.437Z,100657.27
2023-09-08T23:10:57.179Z,100655.45
2023-09-08T23:13:23.774Z,100656.95
2023-09-08T23:15:50.247Z,100656.01
2023-09-08T23:18:16.877Z,100657.52
2023-09-08T23:20:43.451Z,100657.20
2023-09-08T23:23:09.979Z,100661.65
2023-09-08T23:25:36.529Z,100661.13
2023-09-08T23:28:03.255Z,100659.17
2023-09-08T23:30:29.752Z,100662.18
2023-09-08T23:32:56.348Z,100660.98
2023-09-08T23:35:22.915Z,100660.83
2023-09-08T23:37:49.490Z,100661.20
2023-09-08T23:40:16.047Z,100658.77
2023-09-08T23:42:43.183Z,100660.25
2023-09-08T23:45:10.108Z,100663.30
2023-09-08T23:47:38.496Z,100663.71
2023-09-08T23:50:05.625Z,100663.25
2023-09-08T23:52:32.104Z,100664.75
2023-09-08T23:54:58.598Z,100660.07
2023-09-08T23:57:25.181Z,100658.91
2023-09-08T23:59:51.768Z,100659.16
